createdAt,value
2023-01-20T00:01:12.238Z,2.86
2023-01-20T00:03:40.159Z,2.84
2023-01-20T00:06:07.133Z,2.84
2023-01-20T00:08:33.679Z,2.85
2023-01-20T00:11:04.558Z,2.83
2023-01-20T00:13:31.336Z,2.85
2023-01-20T00:15:57.645Z,2.83
2023-01-20T00:18:23.985Z,2.82
2023-01-20T00:20:50.318Z,2.83
2023-01-20T00:23:16.701Z,2.85
2023-01-20T00:25:43.019Z,2.82
2023-01-20T00:28:09.508Z,2.82
2023-01-20T00:30:36.329Z,2.80
2023-01-20T00:33:02.759Z,2.80
2023-01-20T00:35:29.061Z,2.78
2023-01-20T00:37:55.380Z,2.77
2023-01-20T00:40:21.814Z,2.73
2023-01-20T00:42:48.154Z,2.72
2023-01-20T00:45:14.910Z,2.71
2023-01-20T00:47:41.466Z,2.69
2023-01-20T00:50:08.352Z,2.68
2023-01-20T00:52:34.675Z,2.66
2023-01-20T00:55:01.023Z,2.66
2023-01-20T00:57:27.340Z,2.65
2023-01-20T00:59:54.199Z,2.65
2023-01-20T01:02:20.548Z,2.65
2023-01-20T01:04:50.876Z,2.62
2023-01-20T01:07:18.388Z,2.63
2023-01-20T01:09:44.670Z,2.63
2023-01-20T01:12:11.074Z,2.62
2023-01-20T01:14:37.392Z,2.61
2023-01-20T01:17:03.896Z,2.61
2023-01-20T01:19:30.286Z,2.61
2023-01-20T01:21:56.631Z,2.63
2023-01-20T01:24:23.045Z,2.61
2023-01-20T01:26:49.366Z,2.62
2023-01-20T01:29:15.680Z,2.63
2023-01-20T01:31:42.511Z,2.65
2023-01-20T01:34:08.841Z,2.65
2023-01-20T01:36:35.208Z,2.67
2023-01-20T01:39:01.540Z,2.69
2023-01-20T01:41:27.965Z,2.71
2023-01-20T01:44:10.219Z,2.69
2023-01-20T01:46:37.259Z,2.74
2023-01-20T01:49:15.562Z,2.73
2023-01-20T01:51:48.199Z,2.75
2023-01-20T01:54:22.562Z,2.74
2023-01-20T01:56:50.792Z,2.78
2023-01-20T01:59:18.550Z,2.78
2023-01-20T02:01:49.483Z,2.76
2023-01-20T02:04:33.325Z,2.77
2023-01-20T02:07:10.150Z,2.76
2023-01-20T02:09:37.673Z,2.79
2023-01-20T02:12:09.072Z,2.79
2023-01-20T02:14:42.900Z,2.77
2023-01-20T02:17:25.614Z,2.78
2023-01-20T02:20:00.638Z,2.78
2023-01-20T02:22:37.771Z,2.80
2023-01-20T02:25:14.760Z,2.80
2023-01-20T02:27:59.531Z,2.82
2023-01-20T02:30:28.792Z,2.86
2023-01-20T02:35:53.172Z,2.84
2023-01-20T02:38:28.581Z,2.88
2023-01-20T02:40:59.737Z,2.86
2023-01-20T02:43:50.794Z,2.84
2023-01-20T02:46:34.831Z,2.86
2023-01-20T02:49:08.428Z,2.88
2023-01-20T02:52:00.326Z,2.84
2023-01-20T02:54:30.417Z,2.88
2023-01-20T02:56:59.905Z,2.88
2023-01-20T02:59:32.956Z,2.86
2023-01-20T03:02:10.178Z,2.86
2023-01-20T03:04:43.750Z,2.87
2023-01-20T03:07:13.857Z,2.88
2023-01-20T03:09:50.739Z,2.86
2023-01-20T03:12:24.441Z,2.90
2023-01-20T03:14:52.301Z,2.89
2023-01-20T03:17:20.053Z,2.89
2023-01-20T03:19:46.931Z,2.91
2023-01-20T03:22:13.825Z,2.92
2023-01-20T03:24:43.005Z,2.93
2023-01-20T03:27:11.536Z,2.94
2023-01-20T03:29:38.133Z,2.95
2023-01-20T03:32:07.268Z,2.95
2023-01-20T03:34:37.983Z,2.97
2023-01-20T03:37:05.477Z,3.00
2023-01-20T03:39:32.985Z,3.02
2023-01-20T03:42:25.155Z,3.02
2023-01-20T03:45:16.963Z,3.06
2023-01-20T03:47:58.700Z,3.09
2023-01-20T03:50:43.515Z,3.10
2023-01-20T03:53:31.919Z,3.08
2023-01-20T03:56:06.207Z,3.08
2023-01-20T03:58:37.595Z,3.10
2023-01-20T04:01:18.079Z,3.10
2023-01-20T04:03:48.934Z,3.12
2023-01-20T04:06:18.020Z,3.15
2023-01-20T04:08:49.167Z,3.16
2023-01-20T04:11:15.816Z,3.19
2023-01-20T04:13:42.380Z,3.22
2023-01-20T04:16:18.296Z,3.22
2023-01-20T04:18:50.289Z,3.24
2023-01-20T04:21:24.259Z,3.27
2023-01-20T04:24:23.173Z,3.26
2023-01-20T04:26:49.643Z,3.29
2023-01-20T04:29:16.109Z,3.28
2023-01-20T04:31:42.642Z,3.27
2023-01-20T04:34:13.881Z,3.24
2023-01-20T04:36:40.357Z,3.25
2023-01-20T04:39:07.073Z,3.24
2023-01-20T04:41:33.655Z,3.24
2023-01-20T04:44:00.131Z,3.23
2023-01-20T04:46:26.772Z,3.23
2023-01-20T04:48:53.225Z,3.22
2023-01-20T04:51:19.798Z,3.21
2023-01-20T04:53:46.351Z,3.22
2023-01-20T04:56:14.181Z,3.22
2023-01-20T04:58:41.407Z,3.23
2023-01-20T05:01:08.969Z,3.24
2023-01-20T05:03:36.402Z,3.24
2023-01-20T05:06:03.186Z,3.24
2023-01-20T05:08:29.702Z,3.23
2023-01-20T05:10:56.284Z,3.24
2023-01-20T05:13:22.920Z,3.23
2023-01-20T05:15:49.506Z,3.22
2023-01-20T05:18:15.986Z,3.22
2023-01-20T05:20:48.054Z,3.19
2023-01-20T05:23:15.498Z,3.19
2023-01-20T05:25:42.062Z,3.19
2023-01-20T05:28:08.742Z,3.17
2023-01-20T05:30:35.238Z,3.16
2023-01-20T05:33:01.771Z,3.15
2023-01-20T05:35:28.556Z,3.16
2023-01-20T05:37:55.557Z,3.16
2023-01-20T05:40:22.264Z,3.16
2023-01-20T05:42:48.823Z,3.16
2023-01-20T05:45:15.783Z,3.15
2023-01-20T05:47:42.387Z,3.17
2023-01-20T05:50:09.611Z,3.16
2023-01-20T05:52:36.049Z,3.17
2023-01-20T05:55:02.626Z,3.16
2023-01-20T05:57:29.059Z,3.15
2023-01-20T06:00:01.350Z,3.15
2023-01-20T06:02:30.907Z,3.13
2023-01-20T06:04:57.517Z,3.15
2023-01-20T06:07:24.075Z,3.13
2023-01-20T06:09:50.545Z,3.15
2023-01-20T06:12:16.984Z,3.14
2023-01-20T06:14:43.513Z,3.14
2023-01-20T06:17:10.891Z,3.15
2023-01-20T06:19:37.419Z,3.16
2023-01-20T06:22:03.825Z,3.17
2023-01-20T06:24:30.416Z,3.17
2023-01-20T06:26:56.904Z,3.18
2023-01-20T06:29:23.489Z,3.18
2023-01-20T06:31:49.961Z,3.19
2023-01-20T06:34:16.523Z,3.18
2023-01-20T06:36:42.964Z,3.19
2023-01-20T06:39:09.458Z,3.20
2023-01-20T06:41:36.044Z,3.18
2023-01-20T06:44:02.552Z,3.17
2023-01-20T06:46:29.255Z,3.17
2023-01-20T06:49:00.412Z,3.16
2023-01-20T06:51:29.103Z,3.13
2023-01-20T06:53:56.120Z,3.12
2023-01-20T06:56:23.616Z,3.11
2023-01-20T06:58:50.600Z,3.13
2023-01-20T07:01:23.830Z,3.12
2023-01-20T07:03:50.551Z,3.16
2023-01-20T07:06:29.939Z,3.16
2023-01-20T07:08:58.782Z,3.19
2023-01-20T07:11:26.279Z,3.21
2023-01-20T07:13:52.933Z,3.21
2023-01-20T07:16:19.453Z,3.21
2023-01-20T07:18:52.030Z,3.19
2023-01-20T07:21:18.711Z,3.20
2023-01-20T07:23:45.539Z,3.21
2023-01-20T07:26:15.687Z,3.19
2023-01-20T07:28:42.704Z,3.19
2023-01-20T07:31:11.770Z,3.18
2023-01-20T07:33:38.423Z,3.18
2023-01-20T07:36:07.065Z,3.17
2023-01-20T07:38:34.208Z,3.18
2023-01-20T07:41:04.659Z,3.18
2023-01-20T07:43:32.055Z,3.19
2023-01-20T07:46:00.287Z,3.17
2023-01-20T07:48:30.173Z,3.19
2023-01-20T07:51:03.039Z,3.16
2023-01-20T07:53:29.780Z,3.18
2023-01-20T07:55:56.358Z,3.22
2023-01-20T07:58:22.865Z,3.21
2023-01-20T08:00:49.446Z,3.20
2023-01-20T08:03:16.334Z,3.20
2023-01-20T08:05:42.965Z,3.21
2023-01-20T08:08:09.470Z,3.21
2023-01-20T08:10:36.148Z,3.22
2023-01-20T08:13:02.657Z,3.23
2023-01-20T08:15:29.176Z,3.25
2023-01-20T08:17:56.283Z,3.26
2023-01-20T08:20:23.279Z,3.26
2023-01-20T08:22:51.470Z,3.26
2023-01-20T08:25:17.949Z,3.26
2023-01-20T08:27:44.541Z,3.27
2023-01-20T08:30:11.566Z,3.25
2023-01-20T08:32:38.151Z,3.24
2023-01-20T08:35:05.529Z,3.23
2023-01-20T08:37:31.918Z,3.22
2023-01-20T08:39:58.513Z,3.20
2023-01-20T08:42:24.947Z,3.21
2023-01-20T08:44:53.288Z,3.18
2023-01-20T08:47:19.767Z,3.19
2023-01-20T08:49:46.500Z,3.19
2023-01-20T08:52:13.019Z,3.19
2023-01-20T08:54:39.600Z,3.19
2023-01-20T08:57:06.044Z,3.19
2023-01-20T08:59:32.539Z,3.20
2023-01-20T09:01:59.072Z,3.19
2023-01-20T09:04:25.613Z,3.19
2023-01-20T09:06:52.884Z,3.18
2023-01-20T09:09:22.235Z,3.16
2023-01-20T09:11:52.437Z,3.18
2023-01-20T09:14:20.670Z,3.16
2023-01-20T09:16:48.476Z,3.18
2023-01-20T09:19:15.018Z,3.20
2023-01-20T09:21:42.858Z,3.21
2023-01-20T09:24:09.718Z,3.25
2023-01-20T09:26:39.169Z,3.30
2023-01-20T09:29:10.259Z,3.32
2023-01-20T09:31:38.800Z,3.35
2023-01-20T09:34:05.612Z,3.38
2023-01-20T09:36:33.776Z,3.39
2023-01-20T09:39:19.334Z,3.45
2023-01-20T09:42:08.277Z,3.47
2023-01-20T09:44:48.531Z,3.52
2023-01-20T09:47:47.559Z,3.52
2023-01-20T09:50:37.567Z,3.59
2023-01-20T09:53:15.446Z,3.60
2023-01-20T09:55:48.093Z,3.63
2023-01-20T09:58:37.478Z,3.64
2023-01-20T10:01:18.299Z,3.69
2023-01-20T10:04:05.960Z,3.71
2023-01-20T10:06:39.595Z,3.75
2023-01-20T10:09:21.250Z,3.76
2023-01-20T10:11:49.591Z,3.80
2023-01-20T10:14:21.555Z,3.80
2023-01-20T10:17:13.945Z,3.81
2023-01-20T10:20:13.489Z,3.85
2023-01-20T10:22:50.496Z,3.90
2023-01-20T10:25:21.072Z,3.95
2023-01-20T10:27:55.686Z,3.98
2023-01-20T10:30:26.428Z,4.03
2023-01-20T10:33:02.200Z,4.06
2023-01-20T10:35:33.431Z,4.12
2023-01-20T10:38:00.292Z,4.16
2023-01-20T10:40:41.159Z,4.17
2023-01-20T10:43:14.166Z,4.23
2023-01-20T10:45:46.465Z,4.27
2023-01-20T10:48:25.014Z,4.30
2023-01-20T10:51:03.680Z,4.29
2023-01-20T10:53:34.744Z,4.29
2023-01-20T10:56:04.181Z,4.30
2023-01-20T10:58:35.864Z,4.30
2023-01-20T11:01:10.031Z,4.30
2023-01-20T11:03:40.764Z,4.32
2023-01-20T11:06:15.035Z,4.35
2023-01-20T11:08:44.342Z,4.37
2023-01-20T11:11:19.687Z,4.38
2023-01-20T11:13:46.765Z,4.43
2023-01-20T11:16:19.098Z,4.43
2023-01-20T11:19:07.450Z,4.46
2023-01-20T11:21:36.962Z,4.51
2023-01-20T11:24:32.546Z,4.49
2023-01-20T11:27:11.354Z,4.50
2023-01-20T11:29:45.020Z,4.53
2023-01-20T11:32:29.657Z,4.51
2023-01-20T11:34:57.900Z,4.53
2023-01-20T11:37:39.609Z,4.50
2023-01-20T11:40:27.859Z,4.47
2023-01-20T11:42:55.154Z,4.49
2023-01-20T11:45:27.771Z,4.44
2023-01-20T11:48:11.059Z,4.40
2023-01-20T11:50:48.041Z,4.40
2023-01-20T11:53:21.191Z,4.39
2023-01-20T11:56:12.254Z,4.36
2023-01-20T11:59:18.151Z,4.38
2023-01-20T12:01:51.489Z,4.42
2023-01-20T12:04:45.973Z,4.44
2023-01-20T12:07:18.640Z,4.45
2023-01-20T12:09:49.110Z,4.43
2023-01-20T12:12:40.175Z,4.38
2023-01-20T12:15:14.569Z,4.41
2023-01-20T12:17:53.517Z,4.38
2023-01-20T12:20:35.470Z,4.37
2023-01-20T12:23:24.837Z,4.33
2023-01-20T12:25:57.691Z,4.34
2023-01-20T12:28:31.291Z,4.33
2023-01-20T12:31:06.327Z,4.31
2023-01-20T12:33:35.680Z,4.35
2023-01-20T12:36:33.424Z,4.37
2023-01-20T12:39:29.260Z,4.40
2023-01-20T12:42:07.311Z,4.46
2023-01-20T12:44:52.233Z,4.47
2023-01-20T12:47:46.785Z,4.49
2023-01-20T12:50:24.001Z,4.50
2023-01-20T12:53:31.103Z,4.50
2023-01-20T12:56:17.643Z,4.50
2023-01-20T12:59:21.530Z,4.48
2023-01-20T13:02:10.182Z,4.53
2023-01-20T13:04:58.069Z,4.50
2023-01-20T13:07:30.606Z,4.52
2023-01-20T13:10:16.522Z,4.52
2023-01-20T13:13:00.535Z,4.55
2023-01-20T13:15:32.923Z,4.61
2023-01-20T13:18:31.563Z,4.62
2023-01-20T13:20:58.001Z,4.71
2023-01-20T13:23:28.500Z,4.73
2023-01-20T13:25:55.843Z,4.78
2023-01-20T13:28:25.850Z,4.85
2023-01-20T13:30:55.036Z,4.91
2023-01-20T13:33:37.925Z,4.96
2023-01-20T13:36:22.254Z,5.02
2023-01-20T13:38:51.113Z,5.06
2023-01-20T13:41:51.564Z,5.04
2023-01-20T13:44:42.159Z,5.02
2023-01-20T13:47:11.044Z,5.06
2023-01-20T13:49:46.516Z,5.01
2023-01-20T13:52:13.269Z,5.04
2023-01-20T13:54:44.863Z,5.01
2023-01-20T13:57:23.160Z,4.99
2023-01-20T13:59:50.526Z,5.00
2023-01-20T14:02:21.905Z,4.97
2023-01-20T14:04:49.174Z,4.97
2023-01-20T14:07:32.945Z,4.93
2023-01-20T14:10:01.231Z,4.97
2023-01-20T14:12:29.344Z,5.08
2023-01-20T14:14:55.948Z,5.34
2023-01-20T14:17:24.423Z,5.78
2023-01-20T14:19:54.494Z,6.26
2023-01-20T14:22:26.498Z,6.70
2023-01-20T14:24:57.372Z,7.07
2023-01-20T14:27:27.125Z,7.35
2023-01-20T14:29:55.605Z,7.54
2023-01-20T14:32:30.568Z,7.61
2023-01-20T14:34:57.557Z,7.64
2023-01-20T14:37:32.722Z,7.57
2023-01-20T14:40:11.265Z,7.46
2023-01-20T14:42:41.049Z,7.40
2023-01-20T14:45:21.661Z,7.23
2023-01-20T14:47:49.738Z,7.12
2023-01-20T14:50:18.440Z,6.97
2023-01-20T14:52:46.118Z,6.82
2023-01-20T14:55:44.215Z,6.61
2023-01-20T14:58:17.425Z,6.47
2023-01-20T15:00:51.558Z,6.33
2023-01-20T15:03:28.390Z,6.16
2023-01-20T15:06:10.792Z,5.99
2023-01-20T15:08:37.259Z,5.92
2023-01-20T15:11:18.811Z,5.73
2023-01-20T15:13:51.279Z,5.63
2023-01-20T15:16:49.199Z,5.52
2023-01-20T15:19:20.472Z,5.49
2023-01-20T15:21:49.156Z,5.43
2023-01-20T15:24:20.369Z,5.37
2023-01-20T15:26:49.839Z,5.34
2023-01-20T15:29:24.932Z,5.27
2023-01-20T15:31:52.185Z,5.26
2023-01-20T15:34:21.106Z,5.21
2023-01-20T15:36:48.936Z,5.17
2023-01-20T15:39:21.641Z,5.13
2023-01-20T15:41:48.717Z,5.08
2023-01-20T15:44:15.629Z,5.03
2023-01-20T15:46:42.257Z,4.98
2023-01-20T15:49:13.019Z,4.91
2023-01-20T15:51:42.702Z,4.86
2023-01-20T15:54:10.258Z,4.81
2023-01-20T15:56:40.169Z,4.74
2023-01-20T15:59:18.510Z,4.68
2023-01-20T16:01:49.898Z,4.68
2023-01-20T16:04:17.612Z,4.64
2023-01-20T16:06:44.700Z,4.61
2023-01-20T16:09:25.722Z,4.54
2023-01-20T16:11:52.237Z,4.55
2023-01-20T16:14:19.813Z,4.53
2023-01-20T16:16:46.261Z,4.50
2023-01-20T16:19:14.460Z,4.48
2023-01-20T16:21:41.957Z,4.48
2023-01-20T16:24:09.541Z,4.48
2023-01-20T16:26:36.228Z,4.50
2023-01-20T16:29:04.706Z,4.50
2023-01-20T16:31:32.416Z,4.51
2023-01-20T16:33:59.150Z,4.51
2023-01-20T16:36:25.510Z,4.52
2023-01-20T16:38:52.969Z,4.53
2023-01-20T16:41:28.591Z,4.52
2023-01-20T16:43:55.612Z,4.56
2023-01-20T16:46:25.731Z,4.56
2023-01-20T16:48:54.419Z,4.59
2023-01-20T16:51:23.245Z,4.56
2023-01-20T16:53:49.682Z,4.57
2023-01-20T16:56:18.377Z,4.57
2023-01-20T16:58:47.418Z,4.57
2023-01-20T17:01:14.054Z,4.60
2023-01-20T17:03:42.113Z,4.60
2023-01-20T17:06:14.207Z,4.60
2023-01-20T17:08:50.139Z,4.58
2023-01-20T17:11:18.333Z,4.61
2023-01-20T17:13:45.118Z,4.60
2023-01-20T17:16:11.672Z,4.60
2023-01-20T17:18:38.104Z,4.60
2023-01-20T17:21:06.157Z,4.61
2023-01-20T17:23:33.757Z,4.62
2023-01-20T17:26:04.874Z,4.61
2023-01-20T17:28:31.633Z,4.64
2023-01-20T17:31:07.042Z,4.64
2023-01-20T17:33:33.861Z,4.67
2023-01-20T17:36:02.876Z,4.67
2023-01-20T17:38:30.796Z,4.67
2023-01-20T17:41:04.068Z,4.67
2023-01-20T17:43:34.899Z,4.68
2023-01-20T17:46:01.988Z,4.70
2023-01-20T17:48:28.472Z,4.69
2023-01-20T17:50:59.174Z,4.70
2023-01-20T17:53:26.661Z,4.71
2023-01-20T17:56:03.011Z,4.71
2023-01-20T17:58:37.640Z,4.71
2023-01-20T18:01:10.419Z,4.68
2023-01-20T18:03:38.872Z,4.70
2023-01-20T18:06:10.907Z,4.68
2023-01-20T18:08:38.266Z,4.67
2023-01-20T18:11:06.402Z,4.65
2023-01-20T18:13:32.954Z,4.64
2023-01-20T18:16:10.709Z,4.61
2023-01-20T18:18:41.603Z,4.62
2023-01-20T18:21:19.843Z,4.59
2023-01-20T18:23:47.425Z,4.62
2023-01-20T18:26:16.171Z,4.59
2023-01-20T18:28:42.916Z,4.57
2023-01-20T18:31:12.531Z,4.56
2023-01-20T18:33:44.049Z,4.53
2023-01-20T18:36:14.880Z,4.51
2023-01-20T18:38:45.012Z,4.49
2023-01-20T18:41:13.868Z,4.43
2023-01-20T18:43:41.157Z,4.37
2023-01-20T18:46:09.324Z,4.30
2023-01-20T18:48:39.607Z,4.23
2023-01-20T18:51:07.426Z,4.17
2023-01-20T18:53:34.024Z,4.10
2023-01-20T18:56:01.617Z,4.02
2023-01-20T18:58:28.801Z,3.97
2023-01-20T19:01:05.943Z,3.89
2023-01-20T19:03:32.753Z,3.86
2023-01-20T19:06:07.727Z,3.77
2023-01-20T19:08:34.688Z,3.73
2023-01-20T19:11:02.481Z,3.69
2023-01-20T19:13:28.969Z,3.65
2023-01-20T19:15:55.760Z,3.61
2023-01-20T19:18:22.331Z,3.58
2023-01-20T19:20:48.792Z,3.55
2023-01-20T19:23:15.358Z,3.51
2023-01-20T19:25:41.838Z,3.48
2023-01-20T19:28:09.326Z,3.47
2023-01-20T19:30:40.321Z,3.44
2023-01-20T19:33:11.981Z,3.43
2023-01-20T19:35:40.505Z,3.42
2023-01-20T19:38:08.354Z,3.40
2023-01-20T19:40:34.882Z,3.38
2023-01-20T19:43:01.717Z,3.36
2023-01-20T19:47:57.124Z,3.33
2023-01-20T19:50:23.565Z,3.31
2023-01-20T19:52:49.930Z,3.30
2023-01-20T19:55:16.420Z,3.29
2023-01-20T19:57:42.765Z,3.25
2023-01-20T20:00:10.018Z,3.25
2023-01-20T20:02:36.419Z,3.23
2023-01-20T20:05:02.945Z,3.21
2023-01-20T20:07:29.339Z,3.20
2023-01-20T20:09:55.712Z,3.16
2023-01-20T20:12:22.080Z,3.15
2023-01-20T20:14:48.469Z,3.11
2023-01-20T20:17:14.920Z,3.10
2023-01-20T20:19:41.296Z,3.08
2023-01-20T20:22:07.843Z,3.06
2023-01-20T20:24:34.227Z,3.05
2023-01-20T20:27:00.594Z,3.03
2023-01-20T20:29:27.895Z,3.00
2023-01-20T20:31:54.248Z,2.99
2023-01-20T20:34:20.684Z,2.98
2023-01-20T20:36:47.259Z,2.96
2023-01-20T20:39:15.917Z,2.94
2023-01-20T20:41:43.097Z,2.94
2023-01-20T20:44:10.277Z,2.92
2023-01-20T20:46:37.089Z,2.92
2023-01-20T20:49:03.751Z,2.90
2023-01-20T20:51:32.891Z,2.88
2023-01-20T20:54:01.455Z,2.86
2023-01-20T20:56:31.354Z,2.86
2023-01-20T20:59:02.247Z,2.85
2023-01-20T21:01:31.228Z,2.83
2023-01-20T21:03:57.956Z,2.82
2023-01-20T21:06:25.471Z,2.79
2023-01-20T21:08:52.623Z,2.77
2023-01-20T21:11:20.093Z,2.76
2023-01-20T21:13:49.032Z,2.73
2023-01-20T21:16:17.745Z,2.71
2023-01-20T21:18:44.192Z,2.70
2023-01-20T21:21:13.150Z,2.67
2023-01-20T21:23:42.854Z,2.66
2023-01-20T21:26:12.903Z,2.65
2023-01-20T21:28:40.766Z,2.64
2023-01-20T21:31:11.847Z,2.61
2023-01-20T21:33:42.220Z,2.59
2023-01-20T21:36:12.141Z,2.57
2023-01-20T21:38:46.366Z,2.54
2023-01-20T21:41:14.513Z,2.53
2023-01-20T21:44:01.197Z,2.51
2023-01-20T21:46:29.235Z,2.48
2023-01-20T21:49:14.203Z,2.47
2023-01-20T21:51:59.465Z,2.45
2023-01-20T21:54:32.284Z,2.39
2023-01-20T21:56:59.947Z,2.38
2023-01-20T21:59:26.843Z,2.37
2023-01-20T22:01:53.824Z,2.34
2023-01-20T22:04:20.307Z,2.32
2023-01-20T22:06:46.736Z,2.31
2023-01-20T22:09:13.228Z,2.27
2023-01-20T22:11:39.637Z,2.26
2023-01-20T22:14:06.067Z,2.24
2023-01-20T22:16:32.548Z,2.21
2023-01-20T22:18:59.183Z,2.18
2023-01-20T22:21:26.284Z,2.15
2023-01-20T22:23:53.543Z,2.15
2023-01-20T22:26:20.138Z,2.13
2023-01-20T22:28:46.510Z,2.11
2023-01-20T22:31:17.182Z,2.08
2023-01-20T22:33:43.753Z,2.06
2023-01-20T22:36:10.168Z,2.05
2023-01-20T22:38:36.553Z,2.03
2023-01-20T22:41:05.085Z,2.01
2023-01-20T22:43:31.635Z,2.01
2023-01-20T22:45:59.782Z,2.00
2023-01-20T22:48:26.222Z,2.00
2023-01-20T22:50:54.495Z,1.97
2023-01-20T22:53:21.009Z,1.96
2023-01-20T22:56:00.330Z,1.94
2023-01-20T22:58:27.109Z,1.92
2023-01-20T23:00:53.618Z,1.90
2023-01-20T23:03:20.084Z,1.87
2023-01-20T23:05:58.189Z,1.82
2023-01-20T23:08:26.778Z,1.82
2023-01-20T23:11:02.573Z,1.77
2023-01-20T23:13:29.572Z,1.77
2023-01-20T23:15:56.054Z,1.75
2023-01-20T23:18:23.234Z,1.72
2023-01-20T23:20:51.164Z,1.70
2023-01-20T23:23:18.923Z,1.71
2023-01-20T23:25:45.338Z,1.69
2023-01-20T23:28:12.434Z,1.69
2023-01-20T23:30:39.271Z,1.69
2023-01-20T23:33:06.148Z,1.70
2023-01-20T23:35:39.596Z,1.67
2023-01-20T23:38:06.948Z,1.68
2023-01-20T23:40:33.973Z,1.68
2023-01-20T23:43:00.443Z,1.67
2023-01-20T23:45:28.591Z,1.65
2023-01-20T23:47:55.057Z,1.64
2023-01-20T23:50:21.437Z,1.62
2023-01-20T23:52:47.872Z,1.60
2023-01-20T23:55:14.391Z,1.59
2023-01-20T23:57:40.729Z,1.56
